Hua-yang, China
Current Conditions -  °F | °C
As of 7:00 PM on Friday 31 Oct 2014 (Local Time) from ZUUU Reporting Station
Scattered Clouds Scattered Clouds  
Wind Chill: 63°   Ceiling: Unl
Heat Index: 63°   Visibility: 6mi
Dew Point: 52°   Wind: 4mph
Humidity: 68%   Direction: 10°N
Pressure: 30"   Gusts: NA
Location:  30.5°N, 104.07°E
Report Text: ZUUU 311100Z 01002MPS 9999 SCT040 17/11 Q1016 NOSIG
Loading
Personal Weather Stations






























Interactive Weather Map
Tropical Storm Tracking
New forecast layout! Learn more

10-Day Weather Forecast

Advertisements
Track Severe Weather on mobile